createdAt,value
2022-10-17T00:01:08.779Z,8.35
2022-10-17T00:03:38.534Z,8.37
2022-10-17T00:06:08.506Z,8.22
2022-10-17T00:08:36.838Z,8.12
2022-10-17T00:11:08.711Z,8.03
2022-10-17T00:13:37.380Z,7.99
2022-10-17T00:16:06.231Z,7.92
2022-10-17T00:18:34.407Z,7.79
2022-10-17T00:21:02.508Z,7.71
2022-10-17T00:23:30.708Z,7.58
2022-10-17T00:26:02.344Z,7.49
2022-10-17T00:28:32.487Z,7.40
2022-10-17T00:31:02.282Z,7.30
2022-10-17T00:33:31.467Z,7.27
2022-10-17T00:36:07.814Z,7.21
2022-10-17T00:38:36.571Z,7.21
2022-10-17T00:41:05.793Z,7.15
2022-10-17T00:44:06.073Z,7.01
2022-10-17T00:46:36.072Z,7.07
2022-10-17T00:49:08.182Z,7.01
2022-10-17T00:51:40.709Z,6.97
2022-10-17T00:54:10.981Z,6.90
2022-10-17T00:56:40.610Z,6.91
2022-10-17T00:59:12.529Z,6.90
2022-10-17T01:01:42.092Z,6.91
2022-10-17T01:04:10.791Z,6.86
2022-10-17T01:06:38.867Z,6.85
2022-10-17T01:09:07.035Z,6.82
2022-10-17T01:11:45.908Z,6.76
2022-10-17T01:14:29.166Z,6.75
2022-10-17T01:17:05.321Z,6.71
2022-10-17T01:19:47.205Z,6.62
2022-10-17T01:22:24.180Z,6.57
2022-10-17T01:25:23.719Z,6.59
2022-10-17T01:28:05.807Z,6.58
2022-10-17T01:31:15.021Z,6.48
2022-10-17T01:33:50.746Z,6.40
2022-10-17T01:36:30.266Z,6.34
2022-10-17T01:39:03.902Z,6.28
2022-10-17T01:41:40.757Z,6.20
2022-10-17T01:44:14.144Z,6.12
2022-10-17T01:46:46.831Z,6.13
2022-10-17T01:49:19.942Z,6.11
2022-10-17T01:51:52.541Z,6.07
2022-10-17T01:54:24.795Z,6.01
2022-10-17T01:56:57.496Z,5.95
2022-10-17T01:59:31.593Z,5.86
2022-10-17T02:02:00.693Z,5.80
2022-10-17T02:04:30.637Z,5.73
2022-10-17T02:06:58.803Z,5.75
2022-10-17T02:09:28.628Z,5.72
2022-10-17T02:12:14.612Z,5.66
2022-10-17T02:14:55.749Z,5.59
2022-10-17T02:17:36.656Z,5.56
2022-10-17T02:20:17.786Z,5.50
2022-10-17T02:22:53.442Z,5.51
2022-10-17T02:25:30.876Z,5.49
2022-10-17T02:28:07.631Z,5.43
2022-10-17T02:30:39.862Z,5.41
2022-10-17T02:33:11.748Z,5.41
2022-10-17T02:35:47.625Z,5.35
2022-10-17T02:38:17.040Z,5.35
2022-10-17T02:40:48.130Z,5.33
2022-10-17T02:43:16.337Z,5.31
2022-10-17T02:45:44.459Z,5.31
2022-10-17T02:48:21.214Z,5.30
2022-10-17T02:51:00.329Z,5.30
2022-10-17T02:53:35.977Z,5.29
2022-10-17T02:56:10.267Z,5.28
2022-10-17T02:58:39.686Z,5.28
2022-10-17T03:01:08.581Z,5.24
2022-10-17T03:03:36.686Z,5.27
2022-10-17T03:06:06.577Z,5.23
2022-10-17T03:08:34.638Z,5.26
2022-10-17T03:11:02.738Z,5.24
2022-10-17T03:13:31.337Z,5.25
2022-10-17T03:16:00.346Z,5.16
2022-10-17T03:18:28.676Z,5.22
2022-10-17T03:20:56.737Z,5.18
2022-10-17T03:23:26.329Z,5.09
2022-10-17T03:25:54.686Z,5.15
2022-10-17T03:28:23.214Z,5.18
2022-10-17T03:30:51.568Z,5.03
2022-10-17T03:33:19.861Z,4.73
2022-10-17T03:35:47.947Z,4.94
2022-10-17T03:38:16.227Z,5.08
2022-10-17T03:40:46.070Z,5.13
2022-10-17T03:43:14.170Z,5.11
2022-10-17T03:45:42.361Z,5.13
2022-10-17T03:48:10.532Z,5.01
2022-10-17T03:50:38.551Z,4.67
2022-10-17T03:53:06.733Z,4.43
2022-10-17T03:55:35.134Z,4.36
2022-10-17T03:58:04.570Z,4.28
2022-10-17T04:00:32.602Z,4.21
2022-10-17T04:03:00.547Z,4.26
2022-10-17T04:05:28.893Z,4.24
2022-10-17T04:07:58.726Z,4.25
2022-10-17T04:10:29.849Z,4.24
2022-10-17T04:12:58.001Z,4.41
2022-10-17T04:15:27.499Z,4.64
2022-10-17T04:17:55.656Z,4.82
2022-10-17T04:20:23.755Z,4.79
2022-10-17T04:22:51.877Z,4.92
2022-10-17T04:25:19.974Z,4.96
2022-10-17T04:27:49.123Z,4.97
2022-10-17T04:30:17.871Z,5.14
2022-10-17T04:32:47.292Z,5.25
2022-10-17T04:35:15.622Z,5.34
2022-10-17T04:37:43.591Z,5.28
2022-10-17T04:40:12.343Z,5.20
2022-10-17T04:42:40.618Z,5.32
2022-10-17T04:45:09.637Z,5.40
2022-10-17T04:47:37.733Z,5.42
2022-10-17T04:50:08.379Z,5.41
2022-10-17T04:52:37.675Z,5.37
2022-10-17T04:55:06.517Z,5.35
2022-10-17T04:57:36.275Z,5.38
2022-10-17T05:00:05.312Z,5.40
2022-10-17T05:02:33.285Z,5.42
2022-10-17T05:05:01.202Z,5.40
2022-10-17T05:07:30.843Z,5.39
2022-10-17T05:09:59.257Z,5.37
2022-10-17T05:12:27.715Z,5.31
2022-10-17T05:14:56.224Z,5.34
2022-10-17T05:17:24.403Z,5.36
2022-10-17T05:19:52.429Z,5.37
2022-10-17T05:22:20.422Z,5.41
2022-10-17T05:24:50.170Z,5.49
2022-10-17T05:27:18.179Z,5.53
2022-10-17T05:29:46.503Z,5.68
2022-10-17T05:32:14.595Z,5.83
2022-10-17T05:34:42.989Z,5.94
2022-10-17T05:37:11.282Z,6.06
2022-10-17T05:39:39.378Z,6.22
2022-10-17T05:42:09.144Z,6.29
2022-10-17T05:44:37.301Z,6.51
2022-10-17T05:47:05.313Z,6.68
2022-10-17T05:49:45.000Z,6.82
2022-10-17T05:52:16.545Z,7.07
2022-10-17T05:54:44.695Z,7.23
2022-10-17T05:57:14.696Z,7.38
2022-10-17T05:59:42.973Z,7.52
2022-10-17T06:02:12.731Z,7.73
2022-10-17T06:04:45.617Z,8.01
2022-10-17T06:07:14.361Z,8.04
2022-10-17T06:09:42.905Z,8.27
2022-10-17T06:12:11.138Z,8.37
2022-10-17T06:14:40.968Z,8.57
2022-10-17T06:17:13.447Z,8.69
2022-10-17T06:19:45.007Z,8.90
2022-10-17T06:22:13.569Z,9.08
2022-10-17T06:24:42.503Z,9.31
2022-10-17T06:27:12.268Z,9.48
2022-10-17T06:29:42.252Z,9.76
2022-10-17T06:32:12.767Z,9.98
2022-10-17T06:34:43.232Z,10.25
2022-10-17T06:37:11.419Z,10.42
2022-10-17T06:39:39.488Z,10.59
2022-10-17T06:42:07.818Z,10.76
2022-10-17T06:44:35.884Z,11.05
2022-10-17T06:47:05.996Z,11.20
2022-10-17T06:49:34.735Z,11.52
2022-10-17T06:52:02.977Z,11.61
2022-10-17T06:54:31.711Z,11.71
2022-10-17T06:56:59.831Z,11.88
2022-10-17T06:59:27.918Z,11.99
2022-10-17T07:01:56.333Z,12.10
2022-10-17T07:04:25.808Z,12.24
2022-10-17T07:06:53.916Z,12.39
2022-10-17T07:09:23.462Z,12.54
2022-10-17T07:11:51.849Z,12.76
2022-10-17T07:14:20.035Z,12.94
2022-10-17T07:16:48.167Z,12.91
2022-10-17T07:19:16.619Z,12.87
2022-10-17T07:21:46.078Z,13.04
2022-10-17T07:24:14.217Z,13.19
2022-10-17T07:26:42.689Z,13.29
2022-10-17T07:29:11.469Z,13.52
2022-10-17T07:31:39.858Z,13.67
2022-10-17T07:34:07.927Z,13.37
2022-10-17T07:36:36.314Z,13.45
2022-10-17T07:39:06.039Z,13.67
2022-10-17T07:41:34.174Z,13.84
2022-10-17T07:44:02.487Z,13.96
2022-10-17T07:46:30.886Z,13.91
2022-10-17T07:48:59.153Z,13.81
2022-10-17T07:51:28.108Z,13.94
2022-10-17T07:53:56.419Z,14.11
2022-10-17T07:56:26.181Z,14.32
2022-10-17T07:58:54.998Z,14.50
2022-10-17T08:01:23.111Z,14.65
2022-10-17T08:03:51.410Z,14.41
2022-10-17T08:06:19.881Z,14.20
2022-10-17T08:08:47.953Z,14.37
2022-10-17T08:11:16.929Z,14.61
2022-10-17T08:13:46.915Z,14.87
2022-10-17T08:16:15.397Z,14.98
2022-10-17T08:18:44.835Z,15.19
2022-10-17T08:21:14.369Z,14.98
2022-10-17T08:23:42.909Z,15.22
2022-10-17T08:26:13.661Z,15.30
2022-10-17T08:28:42.591Z,15.49
2022-10-17T08:31:14.296Z,15.52
2022-10-17T08:33:43.590Z,15.38
2022-10-17T08:36:14.107Z,15.53
2022-10-17T08:38:43.845Z,15.70
2022-10-17T08:41:19.135Z,15.87
2022-10-17T08:43:57.159Z,15.83
2022-10-17T08:46:32.450Z,15.99
2022-10-17T08:49:02.443Z,15.81
2022-10-17T08:51:35.316Z,16.15
2022-10-17T08:54:08.187Z,16.36
2022-10-17T08:56:48.517Z,16.07
2022-10-17T08:59:21.948Z,16.12
2022-10-17T09:01:58.696Z,16.40
2022-10-17T09:04:57.567Z,16.29
2022-10-17T09:07:34.380Z,16.40
2022-10-17T09:10:11.784Z,16.75
2022-10-17T09:12:48.823Z,16.50
2022-10-17T09:15:35.977Z,16.75
2022-10-17T09:18:13.293Z,16.60
2022-10-17T09:20:46.321Z,16.53
2022-10-17T09:23:18.935Z,16.80
2022-10-17T09:25:49.584Z,16.97
2022-10-17T09:28:23.644Z,17.14
2022-10-17T09:30:58.346Z,17.02
2022-10-17T09:33:35.243Z,17.02
2022-10-17T09:36:14.597Z,17.04
2022-10-17T09:38:44.670Z,16.92
2022-10-17T09:41:43.455Z,17.08
2022-10-17T09:44:21.939Z,17.09
2022-10-17T09:47:03.226Z,17.30
2022-10-17T09:49:35.697Z,17.14
2022-10-17T09:52:06.748Z,17.32
2022-10-17T09:54:43.950Z,17.01
2022-10-17T09:57:14.119Z,17.04
2022-10-17T09:59:43.823Z,16.97
2022-10-17T10:02:23.475Z,16.76
2022-10-17T10:05:19.240Z,16.85
2022-10-17T10:08:03.786Z,17.20
2022-10-17T10:10:33.523Z,17.11
2022-10-17T10:13:07.800Z,16.97
2022-10-17T10:15:41.216Z,16.90
2022-10-17T10:18:33.151Z,17.15
2022-10-17T10:21:11.982Z,17.25
2022-10-17T10:23:41.563Z,17.01
2022-10-17T10:26:24.156Z,16.92
2022-10-17T10:28:58.437Z,16.98
2022-10-17T10:31:40.212Z,17.02
2022-10-17T10:34:22.691Z,17.37
2022-10-17T10:36:57.725Z,17.27
2022-10-17T10:39:34.676Z,17.24
2022-10-17T10:42:04.435Z,17.41
2022-10-17T10:44:34.574Z,17.29
2022-10-17T10:47:20.667Z,17.24
2022-10-17T10:49:49.642Z,16.94
2022-10-17T10:52:29.024Z,17.27
2022-10-17T10:55:05.359Z,16.98
2022-10-17T10:57:35.372Z,17.03
2022-10-17T11:00:10.319Z,17.27
2022-10-17T11:02:45.898Z,17.24
2022-10-17T11:05:19.338Z,17.47
2022-10-17T11:07:56.327Z,17.31
2022-10-17T11:10:32.419Z,17.14
2022-10-17T11:13:06.334Z,17.23
2022-10-17T11:15:38.083Z,17.47
2022-10-17T11:18:09.347Z,17.60
2022-10-17T11:20:44.358Z,17.55
2022-10-17T11:23:21.691Z,17.70
2022-10-17T11:25:53.691Z,17.78
2022-10-17T11:28:26.229Z,17.56
2022-10-17T11:31:03.336Z,17.73
2022-10-17T11:33:43.623Z,17.48
2022-10-17T11:36:12.614Z,17.72
2022-10-17T11:38:48.771Z,17.73
2022-10-17T11:41:28.161Z,17.67
2022-10-17T11:44:01.186Z,17.64
2022-10-17T11:46:30.682Z,17.60
2022-10-17T11:49:09.287Z,17.47
2022-10-17T11:52:00.732Z,17.55
2022-10-17T11:54:37.168Z,17.64
2022-10-17T11:57:30.275Z,17.61
2022-10-17T12:00:09.994Z,17.69
2022-10-17T12:02:47.562Z,17.62
2022-10-17T12:05:25.286Z,17.56
2022-10-17T12:08:01.173Z,17.68
2022-10-17T12:10:46.647Z,17.47
2022-10-17T12:13:52.204Z,17.46
2022-10-17T12:16:44.051Z,17.57
2022-10-17T12:19:34.469Z,17.32
2022-10-17T12:22:22.873Z,17.34
2022-10-17T12:25:01.128Z,17.39
2022-10-17T12:27:46.692Z,17.40
2022-10-17T12:30:24.601Z,17.50
2022-10-17T12:33:22.541Z,17.29
2022-10-17T12:35:52.595Z,17.04
2022-10-17T12:38:27.688Z,17.08
2022-10-17T12:40:58.498Z,16.91
2022-10-17T12:43:58.219Z,16.89
2022-10-17T12:46:59.860Z,16.83
2022-10-17T12:49:51.100Z,17.00
2022-10-17T12:52:43.364Z,17.08
2022-10-17T12:55:17.124Z,17.06
2022-10-17T12:57:58.867Z,17.00
2022-10-17T13:00:36.336Z,17.01
2022-10-17T13:03:12.569Z,16.73
2022-10-17T13:05:45.477Z,16.65
2022-10-17T13:08:19.610Z,17.04
2022-10-17T13:10:52.525Z,17.06
2022-10-17T13:13:24.346Z,16.87
2022-10-17T13:15:56.260Z,16.43
2022-10-17T13:18:26.280Z,16.48
2022-10-17T13:21:00.271Z,16.44
2022-10-17T13:23:32.120Z,16.35
2022-10-17T13:26:14.394Z,16.39
2022-10-17T13:28:43.512Z,16.55
2022-10-17T13:31:32.051Z,16.32
2022-10-17T13:34:02.419Z,16.31
2022-10-17T13:36:32.674Z,16.09
2022-10-17T13:39:09.392Z,15.96
2022-10-17T13:41:41.503Z,15.98
2022-10-17T13:44:15.595Z,15.86
2022-10-17T13:46:45.996Z,15.74
2022-10-17T13:49:25.719Z,15.84
2022-10-17T13:51:56.871Z,15.73
2022-10-17T13:54:35.723Z,15.88
2022-10-17T13:57:05.757Z,15.82
2022-10-17T13:59:40.144Z,15.50
2022-10-17T14:02:15.852Z,15.40
2022-10-17T14:05:15.125Z,15.42
2022-10-17T14:08:05.575Z,15.29
2022-10-17T14:10:29.431Z,15.19
2022-10-17T14:12:58.348Z,15.14
2022-10-17T14:15:28.916Z,15.02
2022-10-17T14:18:06.739Z,15.06
2022-10-17T14:23:37.357Z,14.90
2022-10-17T14:26:11.783Z,14.92
2022-10-17T14:28:41.379Z,14.95
2022-10-17T14:31:19.963Z,14.96
2022-10-17T14:33:52.346Z,14.81
2022-10-17T14:36:21.870Z,14.73
2022-10-17T14:38:53.068Z,14.61
2022-10-17T14:41:43.218Z,14.48
2022-10-17T14:44:20.712Z,14.51
2022-10-17T14:46:52.514Z,14.72
2022-10-17T14:49:29.039Z,14.96
2022-10-17T14:52:29.184Z,15.12
2022-10-17T14:54:58.777Z,15.18
2022-10-17T14:57:43.925Z,15.09
2022-10-17T15:00:16.406Z,15.13
2022-10-17T15:02:45.399Z,15.08
2022-10-17T15:05:15.887Z,15.08
2022-10-17T15:07:45.037Z,15.04
2022-10-17T15:10:30.019Z,15.01
2022-10-17T15:13:26.728Z,14.83
2022-10-17T15:15:52.310Z,14.85
2022-10-17T15:18:20.835Z,14.77
2022-10-17T15:20:56.290Z,14.69
2022-10-17T15:23:33.040Z,14.56
2022-10-17T15:26:01.506Z,14.47
2022-10-17T15:28:29.712Z,14.36
2022-10-17T15:30:58.138Z,14.27
2022-10-17T15:33:26.306Z,14.17
2022-10-17T15:38:24.405Z,13.95
2022-10-17T15:40:52.539Z,13.85
2022-10-17T15:43:20.824Z,13.72
2022-10-17T15:45:49.371Z,13.55
2022-10-17T15:48:23.368Z,13.45
2022-10-17T15:50:51.338Z,13.35
2022-10-17T15:53:20.889Z,13.19
2022-10-17T15:55:51.086Z,13.06
2022-10-17T15:58:20.386Z,12.94
2022-10-17T16:00:49.769Z,12.88
2022-10-17T16:03:18.460Z,12.79
2022-10-17T16:05:46.610Z,12.53
2022-10-17T16:08:14.657Z,12.62
2022-10-17T16:10:44.260Z,12.53
2022-10-17T16:13:17.933Z,12.43
2022-10-17T16:15:46.101Z,12.35
2022-10-17T16:18:14.282Z,12.22
2022-10-17T16:20:43.250Z,12.14
2022-10-17T16:23:14.018Z,12.07
2022-10-17T16:25:44.082Z,11.96
2022-10-17T16:28:12.244Z,11.87
2022-10-17T16:30:46.397Z,11.79
2022-10-17T16:33:14.932Z,11.68
2022-10-17T16:35:43.316Z,11.64
2022-10-17T16:38:11.391Z,11.60
2022-10-17T16:40:40.422Z,11.50
2022-10-17T16:43:13.307Z,11.48
2022-10-17T16:45:41.562Z,11.47
2022-10-17T16:48:10.833Z,11.43
2022-10-17T16:50:40.767Z,11.33
2022-10-17T16:53:08.989Z,11.33
2022-10-17T16:55:37.101Z,11.25
2022-10-17T16:58:05.277Z,11.22
2022-10-17T17:00:35.209Z,11.17
2022-10-17T17:03:03.363Z,11.13
2022-10-17T17:05:31.478Z,11.05
2022-10-17T17:07:59.974Z,11.02
2022-10-17T17:10:28.131Z,10.95
2022-10-17T17:12:56.204Z,10.91
2022-10-17T17:15:24.617Z,10.72
2022-10-17T17:17:55.805Z,10.82
2022-10-17T17:20:24.583Z,10.76
2022-10-17T17:22:53.013Z,10.67
2022-10-17T17:25:21.203Z,10.60
2022-10-17T17:27:49.564Z,10.57
2022-10-17T17:30:18.471Z,10.48
2022-10-17T17:32:46.799Z,10.37
2022-10-17T17:35:16.843Z,10.49
2022-10-17T17:37:45.205Z,10.52
2022-10-17T17:40:13.759Z,10.38
2022-10-17T17:42:42.200Z,10.47
2022-10-17T17:45:11.217Z,10.55
2022-10-17T17:47:39.158Z,10.58
2022-10-17T17:50:08.090Z,10.58
2022-10-17T17:52:37.609Z,10.54
2022-10-17T17:55:06.318Z,10.47
2022-10-17T17:57:34.618Z,10.47
2022-10-17T18:00:02.691Z,10.41
2022-10-17T18:02:30.927Z,10.43
2022-10-17T18:04:59.181Z,10.36
2022-10-17T18:07:27.538Z,10.34
2022-10-17T18:09:57.427Z,10.32
2022-10-17T18:12:25.487Z,10.10
2022-10-17T18:14:53.553Z,10.05
2022-10-17T18:17:21.708Z,10.03
2022-10-17T18:19:49.993Z,10.01
2022-10-17T18:22:18.202Z,10.06
2022-10-17T18:24:46.571Z,9.85
2022-10-17T18:27:16.540Z,9.70
2022-10-17T18:29:45.983Z,9.69
2022-10-17T18:32:14.524Z,9.59
2022-10-17T18:34:43.517Z,9.65
2022-10-17T18:37:11.555Z,9.57
2022-10-17T18:39:39.671Z,9.60
2022-10-17T18:42:07.909Z,9.55
2022-10-17T18:44:37.420Z,9.46
2022-10-17T18:47:05.530Z,9.36
2022-10-17T18:49:33.545Z,9.31
2022-10-17T18:52:01.625Z,9.26
2022-10-17T18:54:32.243Z,9.17
2022-10-17T18:57:00.575Z,9.18
2022-10-17T18:59:28.648Z,9.29
2022-10-17T19:01:58.620Z,9.45
2022-10-17T19:04:27.657Z,9.48
2022-10-17T19:06:56.103Z,9.35
2022-10-17T19:09:24.314Z,9.08
2022-10-17T19:11:52.385Z,9.07
2022-10-17T19:14:20.659Z,9.21
2022-10-17T19:16:50.979Z,9.00
2022-10-17T19:19:22.449Z,8.67
2022-10-17T19:21:51.145Z,8.48
2022-10-17T19:24:21.024Z,8.49
2022-10-17T19:26:53.114Z,8.32
2022-10-17T19:29:22.420Z,8.13
2022-10-17T19:31:50.816Z,7.96
2022-10-17T19:34:20.875Z,7.82
2022-10-17T19:36:49.079Z,7.87
2022-10-17T19:39:18.840Z,7.92
2022-10-17T19:41:48.416Z,8.28
2022-10-17T19:44:17.070Z,8.52
2022-10-17T19:46:47.065Z,8.69
2022-10-17T19:49:15.724Z,8.60
2022-10-17T19:51:45.700Z,8.49
2022-10-17T19:54:15.411Z,8.42
2022-10-17T19:56:43.740Z,8.34
2022-10-17T19:59:14.209Z,8.31
2022-10-17T20:01:42.735Z,8.41
2022-10-17T20:04:12.198Z,8.43
2022-10-17T20:06:41.708Z,8.34
2022-10-17T20:09:16.589Z,8.32
2022-10-17T20:11:46.345Z,8.17
2022-10-17T20:14:14.791Z,8.01
2022-10-17T20:16:44.949Z,7.82
2022-10-17T20:19:14.765Z,7.63
2022-10-17T20:21:44.204Z,7.48
2022-10-17T20:24:16.544Z,7.29
2022-10-17T20:26:46.145Z,7.25
2022-10-17T20:29:17.738Z,7.25
2022-10-17T20:31:47.284Z,7.23
2022-10-17T20:34:17.774Z,7.22
2022-10-17T20:36:46.347Z,7.17
2022-10-17T20:39:17.832Z,7.26
2022-10-17T20:41:46.979Z,7.26
2022-10-17T20:44:15.157Z,7.26
2022-10-17T20:47:00.630Z,7.33
2022-10-17T20:49:29.910Z,7.32
2022-10-17T20:51:58.153Z,7.24
2022-10-17T20:54:29.260Z,7.37
2022-10-17T20:56:59.856Z,7.38
2022-10-17T20:59:30.680Z,7.28
2022-10-17T21:01:59.363Z,7.33
2022-10-17T21:04:45.552Z,7.39
2022-10-17T21:07:14.934Z,7.43
2022-10-17T21:09:45.587Z,7.56
2022-10-17T21:12:21.608Z,7.56
2022-10-17T21:14:59.262Z,7.65
2022-10-17T21:17:27.349Z,7.67
2022-10-17T21:19:56.081Z,7.72
2022-10-17T21:22:24.194Z,7.63
2022-10-17T21:24:53.894Z,7.49
2022-10-17T21:27:22.064Z,7.46
2022-10-17T21:29:50.164Z,7.51
2022-10-17T21:32:31.965Z,7.53
2022-10-17T21:35:07.236Z,7.56
2022-10-17T21:37:35.656Z,7.60
2022-10-17T21:40:05.641Z,7.70
2022-10-17T21:42:34.043Z,7.94
2022-10-17T21:45:04.743Z,8.18
2022-10-17T21:47:41.850Z,8.22
2022-10-17T21:50:13.854Z,8.06
2022-10-17T21:52:42.013Z,7.81
2022-10-17T21:55:11.778Z,7.83
2022-10-17T21:57:39.852Z,7.70
2022-10-17T22:00:09.667Z,7.94
2022-10-17T22:02:37.785Z,8.20
2022-10-17T22:05:06.269Z,8.03
2022-10-17T22:07:34.353Z,8.04
2022-10-17T22:10:02.838Z,8.00
2022-10-17T22:12:32.800Z,7.84
2022-10-17T22:15:01.627Z,8.02
2022-10-17T22:17:30.046Z,8.22
2022-10-17T22:19:58.347Z,8.21
2022-10-17T22:22:26.455Z,8.10
2022-10-17T22:24:54.445Z,8.02
2022-10-17T22:27:22.486Z,7.83
2022-10-17T22:29:52.229Z,7.71
2022-10-17T22:32:22.505Z,7.56
2022-10-17T22:34:50.862Z,7.73
2022-10-17T22:37:18.883Z,7.95
2022-10-17T22:39:47.223Z,8.04
2022-10-17T22:42:15.370Z,8.11
2022-10-17T22:44:43.657Z,8.11
2022-10-17T22:47:13.516Z,8.09
2022-10-17T22:49:41.628Z,8.04
2022-10-17T22:52:09.743Z,7.99
2022-10-17T22:54:37.792Z,7.96
2022-10-17T22:57:05.962Z,7.90
2022-10-17T22:59:34.927Z,7.86
2022-10-17T23:02:02.988Z,7.81
2022-10-17T23:04:32.631Z,7.77
2022-10-17T23:07:00.706Z,7.74
2022-10-17T23:09:29.455Z,7.68
2022-10-17T23:11:57.556Z,7.67
2022-10-17T23:14:25.679Z,7.67
2022-10-17T23:16:53.809Z,7.62
2022-10-17T23:19:21.872Z,7.59
2022-10-17T23:21:51.296Z,7.55
2022-10-17T23:24:19.397Z,7.43
2022-10-17T23:26:47.573Z,7.38
2022-10-17T23:29:15.670Z,7.30
2022-10-17T23:31:43.749Z,7.18
2022-10-17T23:34:11.887Z,7.09
2022-10-17T23:36:40.071Z,7.06
2022-10-17T23:39:10.402Z,6.87
2022-10-17T23:41:38.498Z,6.79
2022-10-17T23:44:07.439Z,6.83
2022-10-17T23:46:35.496Z,6.73
2022-10-17T23:49:03.527Z,6.63
2022-10-17T23:51:31.742Z,6.40
2022-10-17T23:53:59.817Z,6.43
2022-10-17T23:56:29.125Z,6.44
2022-10-17T23:58:57.523Z,6.61
